createdAt,value
2018-03-31T00:01:53.129Z,4.57
2018-03-31T00:04:21.434Z,5.30
2018-03-31T00:06:49.738Z,4.13
2018-03-31T00:09:18.059Z,3.43
2018-03-31T00:11:46.438Z,4.00
2018-03-31T00:14:14.749Z,5.13
2018-03-31T00:16:43.074Z,4.00
2018-03-31T00:19:12.145Z,4.33
2018-03-31T00:21:40.465Z,3.90
2018-03-31T00:24:08.762Z,4.40
2018-03-31T00:26:37.083Z,3.70
2018-03-31T00:29:05.428Z,3.17
2018-03-31T00:31:33.753Z,2.97
2018-03-31T00:34:02.818Z,4.12
2018-03-31T00:36:31.131Z,3.27
2018-03-31T00:39:00.210Z,5.53
2018-03-31T00:41:29.283Z,3.57
2018-03-31T00:43:58.352Z,3.25
2018-03-31T00:46:26.704Z,4.10
2018-03-31T00:48:55.017Z,2.92
2018-03-31T00:51:23.344Z,4.87
2018-03-31T00:53:53.653Z,3.70
2018-03-31T00:56:21.970Z,11.03
2018-03-31T00:58:50.362Z,4.20
2018-03-31T01:01:18.669Z,4.60
2018-03-31T01:03:46.977Z,3.40
2018-03-31T01:06:15.290Z,2.50
2018-03-31T01:08:43.613Z,2.87
2018-03-31T01:11:11.914Z,3.80
2018-03-31T01:13:40.990Z,4.10
2018-03-31T01:16:09.296Z,5.93
2018-03-31T01:18:37.604Z,4.63
2018-03-31T01:21:05.892Z,4.40
2018-03-31T01:23:34.228Z,5.97
2018-03-31T01:26:02.558Z,4.37
2018-03-31T01:28:30.875Z,3.97
2018-03-31T01:30:59.952Z,4.73
2018-03-31T01:33:28.246Z,5.30
2018-03-31T01:35:57.322Z,4.23
2018-03-31T01:38:25.651Z,2.97
2018-03-31T01:40:53.971Z,2.70
2018-03-31T01:43:22.259Z,3.50
2018-03-31T01:45:50.603Z,6.50
2018-03-31T01:48:18.886Z,3.57
2018-03-31T01:50:47.198Z,6.13
2018-03-31T01:53:16.258Z,4.47
2018-03-31T01:55:44.575Z,5.00
2018-03-31T01:58:12.877Z,4.60
2018-03-31T02:00:41.166Z,3.13
2018-03-31T02:03:09.463Z,3.77
2018-03-31T02:05:37.763Z,5.43
2018-03-31T02:08:06.097Z,3.03
2018-03-31T02:10:34.400Z,5.43
2018-03-31T02:13:02.708Z,4.50
2018-03-31T02:15:31.758Z,4.30
2018-03-31T02:18:00.077Z,5.83
2018-03-31T02:20:28.361Z,4.50
2018-03-31T02:22:57.441Z,4.03
2018-03-31T02:25:25.747Z,4.63
2018-03-31T02:27:54.826Z,5.60
2018-03-31T02:30:23.139Z,11.00
2018-03-31T02:32:51.444Z,6.23
2018-03-31T02:35:19.755Z,6.63
2018-03-31T02:37:48.042Z,5.80
2018-03-31T02:40:17.146Z,6.80
2018-03-31T02:42:46.202Z,7.93
2018-03-31T02:45:14.511Z,7.03
2018-03-31T02:47:43.578Z,4.40
2018-03-31T02:50:11.870Z,5.60
2018-03-31T02:52:40.163Z,4.75
2018-03-31T02:55:09.228Z,8.03
2018-03-31T02:57:37.535Z,6.10
2018-03-31T03:00:05.843Z,5.97
2018-03-31T03:02:34.156Z,4.95
2018-03-31T03:05:02.453Z,5.83
2018-03-31T03:07:30.750Z,6.40
2018-03-31T03:09:59.824Z,9.67
2018-03-31T03:12:28.119Z,4.30
2018-03-31T03:14:57.244Z,8.63
2018-03-31T03:17:25.554Z,8.23
2018-03-31T03:19:53.851Z,6.27
2018-03-31T03:22:22.192Z,6.78
2018-03-31T03:24:50.479Z,8.73
2018-03-31T03:27:18.784Z,7.87
2018-03-31T03:29:47.077Z,8.13
2018-03-31T03:32:16.160Z,7.20
2018-03-31T03:34:44.471Z,7.10
2018-03-31T03:37:12.773Z,7.10
2018-03-31T03:39:41.087Z,7.30
2018-03-31T03:42:09.410Z,7.03
2018-03-31T03:44:37.721Z,7.17
2018-03-31T03:47:06.019Z,7.60
2018-03-31T03:49:34.352Z,8.30
2018-03-31T03:52:02.643Z,8.70
2018-03-31T03:54:30.954Z,8.23
2018-03-31T03:56:59.322Z,10.50
2018-03-31T03:59:27.634Z,8.53
2018-03-31T04:01:56.717Z,7.37
2018-03-31T04:04:25.024Z,8.13
2018-03-31T04:06:53.345Z,7.30
2018-03-31T04:09:24.630Z,8.30
2018-03-31T04:11:54.034Z,8.32
2018-03-31T04:14:22.342Z,8.87
2018-03-31T04:16:50.647Z,10.50
2018-03-31T04:19:18.939Z,7.43
2018-03-31T04:21:48.008Z,7.83
2018-03-31T04:24:16.296Z,7.40
2018-03-31T04:26:44.612Z,10.33
2018-03-31T04:29:12.932Z,7.93
2018-03-31T04:31:42.002Z,9.27
2018-03-31T04:34:10.316Z,8.20
2018-03-31T04:36:38.618Z,10.90
2018-03-31T04:39:06.907Z,7.83
2018-03-31T04:41:36.007Z,9.00
2018-03-31T04:44:05.075Z,8.83
2018-03-31T04:46:33.375Z,10.13
2018-03-31T04:49:02.497Z,12.70
2018-03-31T04:51:30.789Z,9.63
2018-03-31T04:53:59.107Z,11.50
2018-03-31T04:56:28.174Z,11.40
2018-03-31T04:58:56.510Z,11.90
2018-03-31T05:01:25.585Z,11.23
2018-03-31T05:03:53.896Z,9.43
2018-03-31T05:06:22.199Z,11.40
2018-03-31T05:08:50.520Z,9.65
2018-03-31T05:11:18.830Z,11.30
2018-03-31T05:13:47.157Z,9.17
2018-03-31T05:16:15.479Z,12.80
2018-03-31T05:18:43.788Z,13.43
2018-03-31T05:21:12.104Z,13.13
2018-03-31T05:23:40.404Z,10.90
2018-03-31T05:26:09.466Z,12.05
2018-03-31T05:28:37.783Z,12.47
2018-03-31T05:31:06.078Z,12.57
2018-03-31T05:33:34.404Z,12.17
2018-03-31T05:36:02.736Z,13.10
2018-03-31T05:38:31.133Z,9.70
2018-03-31T05:40:59.439Z,10.17
2018-03-31T05:43:27.735Z,14.13
2018-03-31T05:45:56.817Z,12.60
2018-03-31T05:48:25.145Z,11.77
2018-03-31T05:50:53.562Z,11.80
2018-03-31T05:53:21.869Z,13.33
2018-03-31T05:55:50.947Z,10.03
2018-03-31T05:58:19.242Z,11.00
2018-03-31T06:00:47.555Z,11.25
2018-03-31T06:03:15.887Z,14.00
2018-03-31T06:05:44.989Z,12.20
2018-03-31T06:08:14.094Z,16.50
2018-03-31T06:10:42.373Z,13.03
2018-03-31T06:13:10.730Z,13.97
2018-03-31T06:15:39.033Z,15.03
2018-03-31T06:18:08.112Z,18.87
2018-03-31T06:20:37.179Z,17.37
2018-03-31T06:23:05.479Z,14.90
2018-03-31T06:25:34.890Z,13.67
2018-03-31T06:28:04.002Z,14.23
2018-03-31T06:30:32.300Z,11.53
2018-03-31T06:33:00.635Z,13.67
2018-03-31T06:35:29.721Z,13.20
2018-03-31T06:37:58.056Z,14.60
2018-03-31T06:40:26.358Z,15.60
2018-03-31T06:42:54.654Z,14.63
2018-03-31T06:45:22.962Z,16.07
2018-03-31T06:47:52.057Z,15.93
2018-03-31T06:50:21.130Z,15.73
2018-03-31T06:52:49.507Z,14.67
2018-03-31T06:55:17.755Z,16.77
2018-03-31T06:57:46.068Z,13.67
2018-03-31T07:00:15.149Z,18.27
2018-03-31T07:02:44.242Z,14.83
2018-03-31T07:05:12.534Z,16.10
2018-03-31T07:07:40.875Z,13.40
2018-03-31T07:10:09.251Z,15.10
2018-03-31T07:12:37.546Z,15.13
2018-03-31T07:15:06.623Z,15.80
2018-03-31T07:17:34.930Z,16.43
2018-03-31T07:20:03.264Z,15.53
2018-03-31T07:22:31.560Z,16.50
2018-03-31T07:24:59.905Z,19.33
2018-03-31T07:27:28.212Z,25.00
2018-03-31T07:29:56.553Z,20.00
2018-03-31T07:32:24.852Z,23.63
2018-03-31T07:34:53.706Z,21.15
2018-03-31T07:37:22.770Z,22.77
2018-03-31T07:39:51.091Z,19.63
2018-03-31T07:42:19.422Z,19.40
2018-03-31T07:44:47.775Z,19.33
2018-03-31T07:47:16.130Z,17.93
2018-03-31T07:49:44.426Z,17.53
2018-03-31T07:52:12.762Z,14.53
2018-03-31T07:54:41.830Z,15.40
2018-03-31T07:57:10.147Z,14.20
2018-03-31T07:59:39.248Z,13.50
2018-03-31T08:02:07.637Z,14.87
2018-03-31T08:04:35.969Z,15.70
2018-03-31T08:07:04.416Z,15.00
2018-03-31T08:09:32.705Z,12.30
2018-03-31T08:12:01.071Z,15.77
2018-03-31T08:14:29.383Z,10.23
2018-03-31T08:16:57.697Z,11.37
2018-03-31T08:19:26.761Z,10.40
2018-03-31T08:21:55.884Z,12.67
2018-03-31T08:24:25.024Z,9.50
2018-03-31T08:26:53.792Z,12.10
2018-03-31T08:29:22.105Z,11.97
2018-03-31T08:31:50.422Z,7.50
2018-03-31T08:34:18.754Z,8.27
2018-03-31T08:36:47.047Z,8.53
2018-03-31T08:39:15.371Z,8.67
2018-03-31T08:41:43.712Z,9.40
2018-03-31T08:44:12.060Z,7.40
2018-03-31T08:46:40.378Z,6.73
2018-03-31T08:49:09.448Z,9.50
2018-03-31T08:51:37.759Z,10.23
2018-03-31T08:54:06.872Z,10.60
2018-03-31T08:56:35.207Z,11.53
2018-03-31T08:59:03.526Z,10.47
2018-03-31T09:01:31.846Z,11.70
2018-03-31T09:04:00.166Z,11.63
2018-03-31T09:06:29.959Z,9.90
2018-03-31T09:08:58.299Z,10.25
2018-03-31T09:11:26.612Z,10.00
2018-03-31T09:13:54.948Z,12.63
2018-03-31T09:16:23.258Z,9.87
2018-03-31T09:18:52.341Z,8.20
2018-03-31T09:21:20.663Z,8.47
2018-03-31T09:23:49.734Z,8.37
2018-03-31T09:26:18.070Z,11.27
2018-03-31T09:28:46.412Z,15.00
2018-03-31T09:31:15.510Z,5.40
2018-03-31T09:33:44.605Z,7.33
2018-03-31T09:36:12.935Z,5.57
2018-03-31T09:38:41.270Z,8.10
2018-03-31T09:41:10.358Z,5.80
2018-03-31T09:43:39.461Z,6.30
2018-03-31T09:46:08.546Z,8.30
2018-03-31T09:48:37.648Z,3.70
2018-03-31T09:51:06.018Z,5.13
2018-03-31T09:53:34.308Z,4.17
2018-03-31T09:56:03.406Z,4.07
2018-03-31T09:58:32.494Z,5.27
2018-03-31T10:01:03.510Z,4.93
2018-03-31T10:03:31.819Z,4.03
2018-03-31T10:06:00.187Z,9.90
2018-03-31T10:08:28.491Z,4.63
2018-03-31T10:10:56.792Z,8.70
2018-03-31T10:13:26.233Z,4.50
2018-03-31T10:15:55.310Z,6.30
2018-03-31T10:18:24.545Z,4.73
2018-03-31T10:20:54.085Z,3.73
2018-03-31T10:23:22.431Z,3.60
2018-03-31T10:25:50.743Z,3.60
2018-03-31T10:28:19.079Z,4.63
2018-03-31T10:30:48.186Z,4.17
2018-03-31T10:33:17.262Z,3.50
2018-03-31T10:35:45.600Z,3.37
2018-03-31T10:38:13.916Z,3.57
2018-03-31T10:40:42.288Z,2.87
2018-03-31T10:43:10.630Z,4.90
2018-03-31T10:45:38.967Z,3.13
2018-03-31T10:48:07.286Z,3.73
2018-03-31T10:50:35.626Z,3.53
2018-03-31T10:53:05.562Z,3.00
2018-03-31T10:55:34.854Z,3.00
2018-03-31T10:58:03.976Z,3.23
2018-03-31T11:00:32.290Z,3.22
2018-03-31T11:03:00.620Z,4.70
2018-03-31T11:05:28.966Z,2.87
2018-03-31T11:07:57.244Z,4.20
2018-03-31T11:10:26.081Z,3.77
2018-03-31T11:12:55.207Z,3.90
2018-03-31T11:15:23.495Z,4.20
2018-03-31T11:17:51.823Z,4.37
2018-03-31T11:20:20.140Z,4.00
2018-03-31T11:22:48.470Z,2.90
2018-03-31T11:25:16.799Z,4.37
2018-03-31T11:27:45.102Z,2.87
2018-03-31T11:30:14.171Z,3.03
2018-03-31T11:32:42.495Z,2.93
2018-03-31T11:35:11.975Z,4.90
2018-03-31T11:37:40.269Z,2.80
2018-03-31T11:40:08.598Z,5.03
2018-03-31T11:42:36.899Z,4.87
2018-03-31T11:45:05.216Z,3.17
2018-03-31T11:47:34.291Z,5.60
2018-03-31T11:50:02.605Z,4.45
2018-03-31T11:52:30.903Z,4.17
2018-03-31T11:54:59.245Z,3.75
2018-03-31T11:57:28.311Z,5.50
2018-03-31T11:59:56.630Z,7.90
2018-03-31T12:02:25.712Z,4.60
2018-03-31T12:04:54.409Z,5.37
2018-03-31T12:07:23.472Z,4.50
2018-03-31T12:09:51.786Z,5.10
2018-03-31T12:12:20.099Z,3.73
2018-03-31T12:14:48.399Z,3.03
2018-03-31T12:17:17.800Z,3.27
2018-03-31T12:19:46.076Z,3.20
2018-03-31T12:22:14.398Z,3.53
2018-03-31T12:24:42.702Z,3.40
2018-03-31T12:27:11.114Z,4.60
2018-03-31T12:29:39.362Z,4.20
2018-03-31T12:32:07.737Z,4.77
2018-03-31T12:34:36.769Z,4.50
2018-03-31T12:37:05.097Z,4.90
2018-03-31T12:39:33.394Z,3.70
2018-03-31T12:42:02.472Z,4.10
2018-03-31T12:44:30.800Z,2.93
2018-03-31T12:46:59.137Z,2.47
2018-03-31T12:49:27.473Z,2.43
2018-03-31T12:51:56.535Z,3.47
2018-03-31T12:57:00.058Z,4.10
2018-03-31T12:59:28.391Z,3.33
2018-03-31T13:01:56.691Z,4.43
2018-03-31T13:04:25.047Z,4.10
2018-03-31T13:06:55.343Z,3.37
2018-03-31T13:09:24.425Z,3.17
2018-03-31T13:11:52.719Z,2.77
2018-03-31T13:14:21.799Z,5.90
2018-03-31T13:16:50.874Z,3.67
2018-03-31T13:19:20.450Z,2.53
2018-03-31T13:21:48.762Z,2.73
2018-03-31T13:24:17.066Z,3.67
2018-03-31T13:26:45.373Z,3.40
2018-03-31T13:29:13.685Z,2.53
2018-03-31T13:31:42.021Z,4.70
2018-03-31T13:34:10.328Z,3.65
2018-03-31T13:36:38.671Z,2.43
2018-03-31T13:39:06.996Z,3.92
2018-03-31T13:41:35.343Z,3.03
2018-03-31T13:44:03.641Z,3.80
2018-03-31T13:46:31.964Z,2.67
2018-03-31T13:49:00.257Z,3.20
2018-03-31T13:51:28.610Z,3.13
2018-03-31T13:53:56.921Z,4.13
2018-03-31T13:56:25.254Z,2.23
2018-03-31T13:58:54.825Z,2.77
2018-03-31T14:01:23.115Z,4.23
2018-03-31T14:03:51.431Z,2.70
2018-03-31T14:06:20.526Z,3.87
2018-03-31T14:08:48.847Z,4.53
2018-03-31T14:11:17.158Z,8.67
2018-03-31T14:13:45.457Z,9.43
2018-03-31T14:16:13.781Z,6.60
2018-03-31T14:18:42.088Z,2.23
2018-03-31T14:21:10.416Z,2.30
2018-03-31T14:23:39.498Z,4.00
2018-03-31T14:26:08.600Z,2.05
2018-03-31T14:28:37.675Z,3.93
2018-03-31T14:31:06.016Z,4.05
2018-03-31T14:33:34.355Z,3.20
2018-03-31T14:36:02.680Z,3.58
2018-03-31T14:38:30.963Z,2.67
2018-03-31T14:40:59.321Z,5.28
2018-03-31T14:43:27.633Z,3.20
2018-03-31T14:45:55.934Z,3.87
2018-03-31T14:48:25.033Z,3.83
2018-03-31T14:50:55.375Z,2.20
2018-03-31T14:53:23.704Z,2.73
2018-03-31T14:55:52.012Z,3.37
2018-03-31T14:58:21.109Z,2.30
2018-03-31T15:00:50.180Z,2.47
2018-03-31T15:03:18.513Z,3.13
2018-03-31T15:05:46.820Z,2.67
2018-03-31T15:08:15.139Z,3.97
2018-03-31T15:10:44.232Z,1.67
2018-03-31T15:13:12.559Z,2.42
2018-03-31T15:15:40.872Z,3.00
2018-03-31T15:18:09.205Z,3.78
2018-03-31T15:20:37.504Z,1.97
2018-03-31T15:23:05.860Z,2.53
2018-03-31T15:25:34.464Z,1.70
2018-03-31T15:28:02.826Z,2.58
2018-03-31T15:30:31.150Z,2.15
2018-03-31T15:33:00.257Z,2.50
2018-03-31T15:35:28.570Z,1.83
2018-03-31T15:37:56.899Z,1.63
2018-03-31T15:40:25.244Z,3.30
2018-03-31T15:42:53.557Z,2.20
2018-03-31T15:45:21.886Z,2.27
2018-03-31T15:47:51.840Z,1.80
2018-03-31T15:50:20.171Z,1.90
2018-03-31T15:52:48.507Z,3.17
2018-03-31T15:55:16.836Z,5.50
2018-03-31T15:57:45.163Z,2.23
2018-03-31T16:00:13.488Z,1.50
2018-03-31T16:02:41.789Z,1.60
2018-03-31T16:05:10.098Z,1.55
2018-03-31T16:07:38.422Z,1.50
2018-03-31T16:10:07.651Z,2.08
2018-03-31T16:12:36.005Z,6.60
2018-03-31T16:15:04.314Z,2.40
2018-03-31T16:17:32.637Z,2.00
2018-03-31T16:20:00.922Z,1.87
2018-03-31T16:22:29.250Z,3.00
2018-03-31T16:24:57.559Z,2.80
2018-03-31T16:27:25.891Z,4.03
2018-03-31T16:29:55.299Z,1.40
2018-03-31T16:32:23.629Z,2.50
2018-03-31T16:34:51.939Z,2.17
2018-03-31T16:37:20.670Z,2.30
2018-03-31T16:39:49.740Z,1.90
2018-03-31T16:42:18.058Z,1.67
2018-03-31T16:44:47.521Z,2.63
2018-03-31T16:47:15.832Z,2.83
2018-03-31T16:49:44.145Z,3.37
2018-03-31T16:52:12.437Z,1.70
2018-03-31T16:54:40.778Z,1.53
2018-03-31T16:57:09.868Z,2.78
2018-03-31T16:59:38.947Z,1.80
2018-03-31T17:02:08.016Z,5.18
2018-03-31T17:04:36.371Z,4.90
2018-03-31T17:07:04.708Z,6.10
2018-03-31T17:09:33.032Z,3.60
2018-03-31T17:12:01.343Z,2.42
2018-03-31T17:14:29.707Z,1.53
2018-03-31T17:16:58.013Z,1.80
2018-03-31T17:19:26.319Z,2.10
2018-03-31T17:21:56.649Z,2.97
2018-03-31T17:24:24.995Z,3.57
2018-03-31T17:26:53.303Z,2.33
2018-03-31T17:29:22.386Z,3.30
2018-03-31T17:31:51.523Z,2.23
2018-03-31T17:34:19.834Z,2.53
2018-03-31T17:36:48.180Z,2.27
2018-03-31T17:39:17.254Z,3.30
2018-03-31T17:41:46.343Z,3.00
2018-03-31T17:44:15.425Z,6.03
2018-03-31T17:46:44.504Z,4.57
2018-03-31T17:49:12.834Z,7.47
2018-03-31T17:51:41.979Z,3.67
2018-03-31T17:54:10.302Z,4.00
2018-03-31T17:56:38.620Z,1.60
2018-03-31T18:01:41.311Z,3.37
2018-03-31T18:04:09.676Z,2.43
2018-03-31T18:06:37.996Z,1.67
2018-03-31T18:09:06.341Z,2.78
2018-03-31T18:11:34.617Z,1.93
2018-03-31T18:14:02.962Z,4.03
2018-03-31T18:16:32.075Z,3.30
2018-03-31T18:19:00.415Z,1.77
2018-03-31T18:21:29.515Z,5.97
2018-03-31T18:23:58.616Z,2.03
2018-03-31T18:26:27.721Z,2.70
2018-03-31T18:28:56.096Z,2.73
2018-03-31T18:31:24.428Z,2.10
2018-03-31T18:33:52.776Z,3.20
2018-03-31T18:36:22.207Z,3.60
2018-03-31T18:38:50.578Z,4.40
2018-03-31T18:41:18.851Z,7.93
2018-03-31T18:43:47.222Z,2.10
2018-03-31T18:46:16.295Z,2.80
2018-03-31T18:48:45.048Z,3.20
2018-03-31T18:51:13.383Z,2.60
2018-03-31T18:53:41.714Z,1.90
2018-03-31T18:56:10.821Z,2.75
2018-03-31T18:58:39.158Z,4.23
2018-03-31T19:01:07.498Z,6.05
2018-03-31T19:03:35.835Z,4.90
2018-03-31T19:06:04.936Z,4.20
2018-03-31T19:08:34.244Z,5.47
2018-03-31T19:11:03.314Z,4.90
2018-03-31T19:13:31.660Z,8.68
2018-03-31T19:16:00.622Z,6.80
2018-03-31T19:18:28.948Z,6.50
2018-03-31T19:20:57.254Z,5.47
2018-03-31T19:23:26.348Z,7.57
2018-03-31T19:25:55.687Z,6.60
2018-03-31T19:28:24.867Z,9.03
2018-03-31T19:30:56.014Z,15.30
2018-03-31T19:33:25.803Z,16.17
2018-03-31T19:36:01.548Z,21.87
2018-03-31T19:38:29.896Z,16.30
2018-03-31T19:40:58.989Z,16.30
2018-03-31T19:43:27.299Z,14.33
2018-03-31T19:45:55.703Z,9.43
2018-03-31T19:48:24.762Z,11.90
2018-03-31T19:50:53.121Z,7.80
2018-03-31T19:53:21.420Z,6.73
2018-03-31T19:55:49.723Z,10.00
2018-03-31T19:58:18.052Z,7.70
2018-03-31T20:00:46.382Z,13.40
2018-03-31T20:03:14.721Z,11.00
2018-03-31T20:05:43.045Z,10.97
2018-03-31T20:08:12.141Z,12.65
2018-03-31T20:10:41.259Z,11.30
2018-03-31T20:13:09.607Z,11.13
2018-03-31T20:15:37.905Z,10.23
2018-03-31T20:18:07.001Z,9.82
2018-03-31T20:20:36.082Z,10.80
2018-03-31T20:23:04.405Z,11.27
2018-03-31T20:25:32.722Z,17.27
2018-03-31T20:28:01.052Z,14.63
2018-03-31T20:30:30.246Z,14.73
2018-03-31T20:32:58.577Z,16.53
2018-03-31T20:35:26.906Z,13.13
2018-03-31T20:37:55.714Z,9.95
2018-03-31T20:40:24.807Z,11.80
2018-03-31T20:42:53.135Z,14.03
2018-03-31T20:45:22.226Z,12.20
2018-03-31T20:47:51.312Z,11.77
2018-03-31T20:50:19.662Z,10.47
2018-03-31T20:52:47.963Z,8.50
2018-03-31T20:55:16.291Z,8.63
2018-03-31T20:57:44.607Z,10.33
2018-03-31T21:00:12.943Z,10.47
2018-03-31T21:02:42.050Z,8.40
2018-03-31T21:05:10.348Z,10.57
2018-03-31T21:07:38.697Z,9.47
2018-03-31T21:10:07.015Z,9.93
2018-03-31T21:12:35.332Z,10.93
2018-03-31T21:15:03.641Z,10.07
2018-03-31T21:17:31.959Z,12.67
2018-03-31T21:20:00.287Z,10.10
2018-03-31T21:22:29.375Z,8.87
2018-03-31T21:24:57.699Z,11.80
2018-03-31T21:27:26.084Z,10.70
2018-03-31T21:29:55.622Z,13.10
2018-03-31T21:32:24.918Z,11.43
2018-03-31T21:34:53.231Z,12.70
2018-03-31T21:37:21.520Z,9.60
2018-03-31T21:39:50.611Z,9.63
2018-03-31T21:42:18.911Z,10.30
2018-03-31T21:44:47.248Z,12.30
2018-03-31T21:47:15.568Z,10.70
2018-03-31T21:49:43.876Z,10.70
2018-03-31T21:52:12.955Z,13.20
2018-03-31T21:54:41.302Z,9.87
2018-03-31T21:57:09.602Z,13.93
2018-03-31T21:59:37.934Z,9.87
2018-03-31T22:02:06.238Z,11.03
2018-03-31T22:04:34.567Z,11.83
2018-03-31T22:07:02.883Z,12.40
2018-03-31T22:09:31.198Z,14.00
2018-03-31T22:11:59.542Z,15.23
2018-03-31T22:14:33.270Z,15.40
2018-03-31T22:17:01.611Z,18.70
2018-03-31T22:19:29.913Z,12.30
2018-03-31T22:21:58.212Z,9.17
2018-03-31T22:24:27.314Z,9.00
2018-03-31T22:26:55.833Z,7.97
2018-03-31T22:29:24.143Z,7.97
2018-03-31T22:31:52.454Z,14.60
2018-03-31T22:34:21.570Z,10.30
2018-03-31T22:36:49.854Z,18.37
2018-03-31T22:39:18.171Z,11.60
2018-03-31T22:41:46.490Z,9.93
2018-03-31T22:44:14.850Z,6.72
2018-03-31T22:46:43.149Z,6.80
2018-03-31T22:49:11.509Z,8.90
2018-03-31T22:51:39.803Z,7.47
2018-03-31T22:54:08.130Z,9.13
2018-03-31T22:56:36.450Z,9.43
2018-03-31T22:59:05.540Z,14.70
2018-03-31T23:01:33.843Z,7.78
2018-03-31T23:04:02.178Z,7.53
2018-03-31T23:06:31.289Z,7.67
2018-03-31T23:08:59.590Z,10.70
2018-03-31T23:11:28.655Z,9.30
2018-03-31T23:13:57.752Z,11.83
2018-03-31T23:16:26.084Z,10.00
2018-03-31T23:18:54.414Z,7.50
2018-03-31T23:21:22.734Z,6.60
2018-03-31T23:23:51.036Z,6.37
2018-03-31T23:26:19.359Z,6.57
2018-03-31T23:28:47.670Z,8.70
2018-03-31T23:31:15.998Z,8.00
2018-03-31T23:33:45.281Z,4.70
2018-03-31T23:36:13.582Z,6.57
2018-03-31T23:38:42.665Z,14.33
2018-03-31T23:41:10.955Z,7.00
2018-03-31T23:43:39.281Z,5.63
2018-03-31T23:46:07.617Z,5.53
2018-03-31T23:48:36.729Z,7.13
2018-03-31T23:51:05.814Z,4.73
2018-03-31T23:53:34.896Z,7.00
2018-03-31T23:56:03.967Z,7.77
2018-03-31T23:58:32.287Z,5.70
